sensor_id;sensor_type;location;lat;lon;timestamp;pressure;altitude;pressure_sealevel;temperature;humidity
75594;BME280;64176;49.156;7.810;2023-06-22T00:01:51;99435.13;;;20.45;89.40
75594;BME280;64176;49.156;7.810;2023-06-22T00:04:35;99477.22;;;20.43;89.26
75594;BME280;64176;49.156;7.810;2023-06-22T00:07:19;99381.84;;;20.43;89.00
75594;BME280;64176;49.156;7.810;2023-06-22T00:10:06;99300.72;;;20.07;93.79
75594;BME280;64176;49.156;7.810;2023-06-22T00:12:50;99325.72;;;20.19;96.34
75594;BME280;64176;49.156;7.810;2023-06-22T00:15:35;99323.81;;;20.22;96.02
75594;BME280;64176;49.156;7.810;2023-06-22T00:18:19;99260.16;;;20.17;95.95
75594;BME280;64176;49.156;7.810;2023-06-22T00:21:04;99234.63;;;19.68;98.21
75594;BME280;64176;49.156;7.810;2023-06-22T00:23:48;99219.53;;;19.48;99.75
75594;BME280;64176;49.156;7.810;2023-06-22T00:26:32;99212.50;;;19.50;100.00
75594;BME280;64176;49.156;7.810;2023-06-22T00:29:17;99207.03;;;19.84;99.96
75594;BME280;64176;49.156;7.810;2023-06-22T00:32:02;99208.06;;;20.05;98.62
75594;BME280;64176;49.156;7.810;2023-06-22T00:34:47;99213.88;;;19.88;98.88
75594;BME280;64176;49.156;7.810;2023-06-22T00:37:34;99215.25;;;19.74;100.00
75594;BME280;64176;49.156;7.810;2023-06-22T00:40:22;99216.97;;;19.75;100.00
75594;BME280;64176;49.156;7.810;2023-06-22T00:43:06;99200.63;;;19.93;99.40
75594;BME280;64176;49.156;7.810;2023-06-22T00:45:50;99208.19;;;19.76;100.00
75594;BME280;64176;49.156;7.810;2023-06-22T00:48:35;99209.44;;;19.64;100.00
75594;BME280;64176;49.156;7.810;2023-06-22T00:51:20;99206.06;;;19.87;100.00
75594;BME280;64176;49.156;7.810;2023-06-22T00:54:10;99203.91;;;19.73;100.00
75594;BME280;64176;49.156;7.810;2023-06-22T00:56:57;99197.41;;;19.85;100.00
75594;BME280;64176;49.156;7.810;2023-06-22T00:59:43;99192.22;;;19.55;100.00
75594;BME280;64176;49.156;7.810;2023-06-22T01:02:27;99195.53;;;19.62;100.00
75594;BME280;64176;49.156;7.810;2023-06-22T01:05:14;99186.09;;;19.83;100.00
75594;BME280;64176;49.156;7.810;2023-06-22T01:08:19;99184.88;;;19.67;100.00
75594;BME280;64176;49.156;7.810;2023-06-22T01:11:20;99195.31;;;19.68;100.00
75594;BME280;64176;49.156;7.810;2023-06-22T01:14:14;99201.06;;;19.23;100.00
75594;BME280;64176;49.156;7.810;2023-06-22T01:17:01;99192.22;;;19.27;100.00
75594;BME280;64176;49.156;7.810;2023-06-22T01:19:46;99205.31;;;19.55;100.00
75594;BME280;64176;49.156;7.810;2023-06-22T01:26:05;99194.75;;;19.58;100.00
75594;BME280;64176;49.156;7.810;2023-06-22T01:28:53;99184.25;;;19.58;100.00
75594;BME280;64176;49.156;7.810;2023-06-22T01:31:40;99174.75;;;19.26;100.00
75594;BME280;64176;49.156;7.810;2023-06-22T01:34:27;99174.34;;;19.40;100.00
75594;BME280;64176;49.156;7.810;2023-06-22T01:37:12;99180.13;;;19.51;100.00
75594;BME280;64176;49.156;7.810;2023-06-22T01:39:56;99182.50;;;19.31;100.00
75594;BME280;64176;49.156;7.810;2023-06-22T01:42:41;99186.88;;;19.31;100.00
75594;BME280;64176;49.156;7.810;2023-06-22T01:45:27;99172.06;;;19.30;100.00
75594;BME280;64176;49.156;7.810;2023-06-22T01:48:11;99179.22;;;19.52;100.00
75594;BME280;64176;49.156;7.810;2023-06-22T01:50:58;99183.41;;;19.58;100.00
75594;BME280;64176;49.156;7.810;2023-06-22T01:53:42;99166.09;;;19.24;100.00
75594;BME280;64176;49.156;7.810;2023-06-22T01:56:26;99172.72;;;19.36;100.00
75594;BME280;64176;49.156;7.810;2023-06-22T01:59:19;99166.78;;;19.31;100.00
75594;BME280;64176;49.156;7.810;2023-06-22T02:02:10;99164.84;;;19.36;100.00
75594;BME280;64176;49.156;7.810;2023-06-22T02:04:59;99161.53;;;19.31;100.00
75594;BME280;64176;49.156;7.810;2023-06-22T02:08:10;99148.94;;;19.42;100.00
75594;BME280;64176;49.156;7.810;2023-06-22T02:10:55;99145.69;;;19.34;100.00
75594;BME280;64176;49.156;7.810;2023-06-22T02:13:44;99140.91;;;19.20;100.00
75594;BME280;64176;49.156;7.810;2023-06-22T02:16:31;99133.91;;;19.21;100.00
75594;BME280;64176;49.156;7.810;2023-06-22T02:19:16;99139.13;;;18.93;100.00
75594;BME280;64176;49.156;7.810;2023-06-22T02:22:02;99138.34;;;18.89;100.00
75594;BME280;64176;49.156;7.810;2023-06-22T02:24:46;99138.94;;;18.99;100.00
75594;BME280;64176;49.156;7.810;2023-06-22T02:27:30;99138.84;;;19.02;100.00
75594;BME280;64176;49.156;7.810;2023-06-22T02:30:17;99141.06;;;19.14;100.00
75594;BME280;64176;49.156;7.810;2023-06-22T02:33:01;99142.97;;;19.11;100.00
75594;BME280;64176;49.156;7.810;2023-06-22T02:35:45;99138.63;;;19.10;100.00
75594;BME280;64176;49.156;7.810;2023-06-22T02:38:32;99130.66;;;19.13;100.00
75594;BME280;64176;49.156;7.810;2023-06-22T02:41:20;99126.06;;;18.91;100.00
75594;BME280;64176;49.156;7.810;2023-06-22T02:44:06;99133.66;;;18.71;100.00
75594;BME280;64176;49.156;7.810;2023-06-22T02:46:50;99119.59;;;18.75;100.00
75594;BME280;64176;49.156;7.810;2023-06-22T02:49:38;99128.88;;;18.85;100.00
75594;BME280;64176;49.156;7.810;2023-06-22T02:52:22;99130.03;;;18.77;100.00
75594;BME280;64176;49.156;7.810;2023-06-22T02:55:06;99118.81;;;18.72;100.00
75594;BME280;64176;49.156;7.810;2023-06-22T02:57:52;99105.81;;;18.69;100.00
75594;BME280;64176;49.156;7.810;2023-06-22T03:00:37;99103.22;;;18.67;100.00
75594;BME280;64176;49.156;7.810;2023-06-22T03:03:23;99105.50;;;18.48;100.00
75594;BME280;64176;49.156;7.810;2023-06-22T03:06:10;99102.59;;;18.59;100.00
75594;BME280;64176;49.156;7.810;2023-06-22T03:09:03;99104.00;;;18.71;100.00
75594;BME280;64176;49.156;7.810;2023-06-22T03:11:48;99106.22;;;18.55;100.00
75594;BME280;64176;49.156;7.810;2023-06-22T03:14:37;99114.75;;;18.62;100.00
75594;BME280;64176;49.156;7.810;2023-06-22T03:17:25;99109.41;;;18.34;100.00
75594;BME280;64176;49.156;7.810;2023-06-22T03:20:11;99122.63;;;18.29;100.00
75594;BME280;64176;49.156;7.810;2023-06-22T03:22:56;99112.59;;;18.14;100.00
75594;BME280;64176;49.156;7.810;2023-06-22T03:25:42;99111.00;;;18.08;100.00
75594;BME280;64176;49.156;7.810;2023-06-22T03:28:28;99117.94;;;18.11;100.00
75594;BME280;64176;49.156;7.810;2023-06-22T03:31:15;99120.81;;;18.33;100.00
75594;BME280;64176;49.156;7.810;2023-06-22T03:33:59;99113.00;;;18.31;100.00
75594;BME280;64176;49.156;7.810;2023-06-22T03:36:46;99111.56;;;18.19;100.00
75594;BME280;64176;49.156;7.810;2023-06-22T03:39:30;99100.63;;;18.36;100.00
75594;BME280;64176;49.156;7.810;2023-06-22T03:42:15;99101.16;;;18.47;100.00
75594;BME280;64176;49.156;7.810;2023-06-22T03:44:59;99096.06;;;18.44;100.00
75594;BME280;64176;49.156;7.810;2023-06-22T03:47:45;99093.47;;;18.43;100.00
75594;BME280;64176;49.156;7.810;2023-06-22T03:50:29;99098.50;;;18.49;100.00
75594;BME280;64176;49.156;7.810;2023-06-22T03:53:13;99093.72;;;18.34;100.00
75594;BME280;64176;49.156;7.810;2023-06-22T03:55:57;99105.00;;;18.36;100.00
75594;BME280;64176;49.156;7.810;2023-06-22T03:58:44;99091.91;;;18.36;100.00
75594;BME280;64176;49.156;7.810;2023-06-22T04:01:31;99094.97;;;18.21;100.00
75594;BME280;64176;49.156;7.810;2023-06-22T04:04:14;99090.84;;;18.43;100.00
75594;BME280;64176;49.156;7.810;2023-06-22T04:06:59;99090.72;;;18.16;100.00
75594;BME280;64176;49.156;7.810;2023-06-22T04:09:43;99096.63;;;18.23;100.00
75594;BME280;64176;49.156;7.810;2023-06-22T04:12:26;99094.38;;;18.42;100.00
75594;BME280;64176;49.156;7.810;2023-06-22T04:15:10;99093.00;;;18.29;100.00
75594;BME280;64176;49.156;7.810;2023-06-22T04:17:58;99092.09;;;18.30;100.00
75594;BME280;64176;49.156;7.810;2023-06-22T04:20:42;99099.75;;;18.36;100.00
75594;BME280;64176;49.156;7.810;2023-06-22T04:23:25;99094.72;;;18.30;100.00
75594;BME280;64176;49.156;7.810;2023-06-22T04:26:09;99086.78;;;18.33;100.00
75594;BME280;64176;49.156;7.810;2023-06-22T04:28:53;99083.09;;;18.40;100.00
75594;BME280;64176;49.156;7.810;2023-06-22T04:31:39;99075.28;;;18.38;100.00
75594;BME280;64176;49.156;7.810;2023-06-22T04:34:25;99077.47;;;18.53;100.00
75594;BME280;64176;49.156;7.810;2023-06-22T04:37:12;99072.00;;;18.61;100.00
75594;BME280;64176;49.156;7.810;2023-06-22T04:39:59;99067.22;;;18.75;100.00
75594;BME280;64176;49.156;7.810;2023-06-22T04:42:43;99071.16;;;18.61;100.00
75594;BME280;64176;49.156;7.810;2023-06-22T04:45:35;99069.88;;;18.74;100.00
75594;BME280;64176;49.156;7.810;2023-06-22T04:48:21;99062.34;;;18.91;100.00
75594;BME280;64176;49.156;7.810;2023-06-22T04:51:08;99070.78;;;19.01;100.00
75594;BME280;64176;49.156;7.810;2023-06-22T04:53:55;99058.81;;;19.20;99.66
75594;BME280;64176;49.156;7.810;2023-06-22T04:56:44;99060.09;;;19.33;99.32
75594;BME280;64176;49.156;7.810;2023-06-22T04:59:30;99053.41;;;19.24;99.77
75594;BME280;64176;49.156;7.810;2023-06-22T05:02:14;99052.47;;;19.27;99.29
75594;BME280;64176;49.156;7.810;2023-06-22T05:04:58;99050.25;;;19.41;98.26
75594;BME280;64176;49.156;7.810;2023-06-22T05:07:44;99050.03;;;19.74;96.72
75594;BME280;64176;49.156;7.810;2023-06-22T05:10:28;99042.16;;;19.98;95.79
75594;BME280;64176;49.156;7.810;2023-06-22T05:13:14;99037.53;;;20.05;95.80
75594;BME280;64176;49.156;7.810;2023-06-22T05:15:58;99038.97;;;20.14;95.41
75594;BME280;64176;49.156;7.810;2023-06-22T05:18:45;99026.94;;;20.08;96.17
75594;BME280;64176;49.156;7.810;2023-06-22T05:21:30;99031.19;;;20.35;94.18
75594;BME280;64176;49.156;7.810;2023-06-22T05:24:14;99034.50;;;20.41;93.78
75594;BME280;64176;49.156;7.810;2023-06-22T05:26:58;99035.19;;;20.67;92.31
75594;BME280;64176;49.156;7.810;2023-06-22T05:29:45;99027.56;;;20.83;90.92
75594;BME280;64176;49.156;7.810;2023-06-22T05:32:31;99019.84;;;21.00;88.33
75594;BME280;64176;49.156;7.810;2023-06-22T05:35:15;99023.56;;;21.18;86.76
75594;BME280;64176;49.156;7.810;2023-06-22T05:37:59;99030.66;;;21.36;85.93
75594;BME280;64176;49.156;7.810;2023-06-22T05:40:43;99023.25;;;21.46;85.75
75594;BME280;64176;49.156;7.810;2023-06-22T05:43:27;99011.56;;;21.53;85.53
75594;BME280;64176;49.156;7.810;2023-06-22T05:46:11;99022.13;;;21.72;86.75
75594;BME280;64176;49.156;7.810;2023-06-22T05:48:54;99036.94;;;21.74;86.05
75594;BME280;64176;49.156;7.810;2023-06-22T05:51:41;99012.66;;;22.08;83.86
75594;BME280;64176;49.156;7.810;2023-06-22T05:54:27;99020.63;;;22.26;81.94
75594;BME280;64176;49.156;7.810;2023-06-22T05:57:11;99034.94;;;22.39;81.42
75594;BME280;64176;49.156;7.810;2023-06-22T05:59:55;99024.41;;;22.58;80.09
75594;BME280;64176;49.156;7.810;2023-06-22T06:02:39;99005.50;;;22.67;77.78
75594;BME280;64176;49.156;7.810;2023-06-22T06:05:27;99023.53;;;22.57;77.39
75594;BME280;64176;49.156;7.810;2023-06-22T06:08:12;99021.22;;;22.51;77.27
75594;BME280;64176;49.156;7.810;2023-06-22T06:10:56;99016.06;;;22.67;75.91
75594;BME280;64176;49.156;7.810;2023-06-22T06:13:41;99028.56;;;22.99;74.84
75594;BME280;64176;49.156;7.810;2023-06-22T06:16:25;99027.84;;;23.14;74.70
75594;BME280;64176;49.156;7.810;2023-06-22T06:19:09;99039.09;;;23.18;73.97
75594;BME280;64176;49.156;7.810;2023-06-22T06:21:55;99034.06;;;23.31;73.06
75594;BME280;64176;49.156;7.810;2023-06-22T06:24:39;99017.09;;;23.53;72.20
75594;BME280;64176;49.156;7.810;2023-06-22T06:27:23;99020.38;;;24.73;67.72
75594;BME280;64176;49.156;7.810;2023-06-22T06:30:38;99010.13;;;24.98;65.59
75594;BME280;64176;49.156;7.810;2023-06-22T06:33:22;99013.94;;;24.77;67.20
75594;BME280;64176;49.156;7.810;2023-06-22T06:36:07;99009.94;;;25.47;64.41
75594;BME280;64176;49.156;7.810;2023-06-22T06:38:52;99008.81;;;25.51;63.87
75594;BME280;64176;49.156;7.810;2023-06-22T06:41:36;98997.75;;;24.67;65.94
75594;BME280;64176;49.156;7.810;2023-06-22T06:44:20;99005.44;;;25.03;65.01
75594;BME280;64176;49.156;7.810;2023-06-22T06:47:04;98997.75;;;25.15;64.48
75594;BME280;64176;49.156;7.810;2023-06-22T06:49:48;98994.56;;;25.08;64.54
75594;BME280;64176;49.156;7.810;2023-06-22T06:52:35;98992.22;;;25.03;63.79
75594;BME280;64176;49.156;7.810;2023-06-22T06:55:19;99006.69;;;25.86;62.04
75594;BME280;64176;49.156;7.810;2023-06-22T06:58:04;99012.00;;;25.72;61.65
75594;BME280;64176;49.156;7.810;2023-06-22T07:00:51;99009.19;;;25.59;62.00
75594;BME280;64176;49.156;7.810;2023-06-22T07:03:35;99002.84;;;26.34;60.74
75594;BME280;64176;49.156;7.810;2023-06-22T07:06:19;99012.50;;;26.50;58.84
75594;BME280;64176;49.156;7.810;2023-06-22T07:09:05;98994.97;;;26.61;58.53
75594;BME280;64176;49.156;7.810;2023-06-22T07:11:49;98998.56;;;27.01;57.82
75594;BME280;64176;49.156;7.810;2023-06-22T07:14:33;99001.69;;;26.24;59.62
75594;BME280;64176;49.156;7.810;2023-06-22T07:17:17;99003.22;;;26.83;58.90
75594;BME280;64176;49.156;7.810;2023-06-22T07:20:02;98997.34;;;27.32;57.41
75594;BME280;64176;49.156;7.810;2023-06-22T07:22:48;98994.78;;;27.70;56.37
75594;BME280;64176;49.156;7.810;2023-06-22T07:25:31;98976.44;;;27.40;56.76
75594;BME280;64176;49.156;7.810;2023-06-22T07:28:18;98994.91;;;27.29;57.56
75594;BME280;64176;49.156;7.810;2023-06-22T07:31:03;98976.44;;;26.47;58.45
75594;BME280;64176;49.156;7.810;2023-06-22T07:33:50;98985.56;;;26.29;60.48
75594;BME280;64176;49.156;7.810;2023-06-22T07:36:34;98974.38;;;26.65;59.29
75594;BME280;64176;49.156;7.810;2023-06-22T07:39:19;98971.97;;;26.19;60.41
75594;BME280;64176;49.156;7.810;2023-06-22T07:42:09;98983.16;;;25.52;62.38
75594;BME280;64176;49.156;7.810;2023-06-22T07:44:56;98972.66;;;25.80;62.52
75594;BME280;64176;49.156;7.810;2023-06-22T07:47:40;98969.75;;;26.27;61.74
75594;BME280;64176;49.156;7.810;2023-06-22T07:50:25;98958.19;;;25.71;62.45
75594;BME280;64176;49.156;7.810;2023-06-22T07:53:09;98975.78;;;25.72;62.40
75594;BME280;64176;49.156;7.810;2023-06-22T07:55:56;98984.63;;;24.97;63.93
75594;BME280;64176;49.156;7.810;2023-06-22T07:58:40;98968.31;;;25.79;62.19
75594;BME280;64176;49.156;7.810;2023-06-22T08:01:24;98967.00;;;26.15;59.71
75594;BME280;64176;49.156;7.810;2023-06-22T08:04:08;98963.56;;;25.98;60.65
75594;BME280;64176;49.156;7.810;2023-06-22T08:06:55;98955.03;;;25.51;61.89
75594;BME280;64176;49.156;7.810;2023-06-22T08:09:46;98964.13;;;25.75;61.98
75594;BME280;64176;49.156;7.810;2023-06-22T08:12:30;98963.41;;;25.73;61.55
75594;BME280;64176;49.156;7.810;2023-06-22T08:15:15;98967.72;;;25.74;61.28
75594;BME280;64176;49.156;7.810;2023-06-22T08:17:59;98967.09;;;25.70;61.99
75594;BME280;64176;49.156;7.810;2023-06-22T08:20:44;98965.66;;;25.65;62.54
75594;BME280;64176;49.156;7.810;2023-06-22T08:23:28;98960.78;;;25.57;62.43
75594;BME280;64176;49.156;7.810;2023-06-22T08:26:12;98977.88;;;25.82;61.92
75594;BME280;64176;49.156;7.810;2023-06-22T08:28:56;98986.47;;;25.99;60.47
75594;BME280;64176;49.156;7.810;2023-06-22T08:31:40;98986.28;;;25.88;60.61
75594;BME280;64176;49.156;7.810;2023-06-22T08:34:24;98991.94;;;25.96;60.84
75594;BME280;64176;49.156;7.810;2023-06-22T08:37:12;98994.78;;;26.07;60.43
75594;BME280;64176;49.156;7.810;2023-06-22T08:40:04;98991.50;;;26.04;60.87
75594;BME280;64176;49.156;7.810;2023-06-22T08:42:52;98996.25;;;26.27;59.94
75594;BME280;64176;49.156;7.810;2023-06-22T08:45:39;98999.41;;;25.75;61.09
75594;BME280;64176;49.156;7.810;2023-06-22T08:48:25;98992.34;;;25.90;60.49
75594;BME280;64176;49.156;7.810;2023-06-22T08:51:09;98985.25;;;26.48;59.60
75594;BME280;64176;49.156;7.810;2023-06-22T08:53:53;98991.94;;;26.53;59.07
75594;BME280;64176;49.156;7.810;2023-06-22T08:56:37;98983.28;;;26.37;59.80
75594;BME280;64176;49.156;7.810;2023-06-22T08:59:23;98973.59;;;26.50;60.81
75594;BME280;64176;49.156;7.810;2023-06-22T09:02:07;98961.22;;;26.63;60.00
75594;BME280;64176;49.156;7.810;2023-06-22T09:04:52;98962.50;;;26.58;59.09
75594;BME280;64176;49.156;7.810;2023-06-22T09:07:40;98954.13;;;26.64;59.78
75594;BME280;64176;49.156;7.810;2023-06-22T09:10:25;98936.13;;;26.69;59.15
75594;BME280;64176;49.156;7.810;2023-06-22T09:13:12;98952.31;;;26.64;59.42
75594;BME280;64176;49.156;7.810;2023-06-22T09:15:57;98956.84;;;26.21;59.84
75594;BME280;64176;49.156;7.810;2023-06-22T09:18:40;98945.84;;;26.41;59.35
75594;BME280;64176;49.156;7.810;2023-06-22T09:21:25;98949.50;;;26.53;59.23
75594;BME280;64176;49.156;7.810;2023-06-22T09:24:10;98951.22;;;26.54;59.28
75594;BME280;64176;49.156;7.810;2023-06-22T09:26:54;98961.00;;;26.25;59.43
75594;BME280;64176;49.156;7.810;2023-06-22T09:29:38;98950.03;;;26.31;59.23
75594;BME280;64176;49.156;7.810;2023-06-22T09:32:22;98939.50;;;26.44;59.31
75594;BME280;64176;49.156;7.810;2023-06-22T09:35:07;98937.47;;;26.35;59.27
75594;BME280;64176;49.156;7.810;2023-06-22T09:37:55;98923.75;;;26.28;59.29
75594;BME280;64176;49.156;7.810;2023-06-22T09:40:44;98924.88;;;26.38;59.08
75594;BME280;64176;49.156;7.810;2023-06-22T09:43:29;98907.56;;;26.60;58.99
75594;BME280;64176;49.156;7.810;2023-06-22T09:46:15;98895.53;;;26.95;58.33
75594;BME280;64176;49.156;7.810;2023-06-22T09:49:02;98891.00;;;26.83;57.45
75594;BME280;64176;49.156;7.810;2023-06-22T09:51:49;98890.53;;;26.76;57.76
75594;BME280;64176;49.156;7.810;2023-06-22T09:54:37;98875.56;;;26.75;58.13
75594;BME280;64176;49.156;7.810;2023-06-22T09:57:21;98874.91;;;26.59;58.78
75594;BME280;64176;49.156;7.810;2023-06-22T10:00:06;98870.66;;;26.96;58.64
75594;BME280;64176;49.156;7.810;2023-06-22T10:02:53;98871.75;;;27.19;57.99
75594;BME280;64176;49.156;7.810;2023-06-22T10:05:37;98869.84;;;27.08;58.14
75594;BME280;64176;49.156;7.810;2023-06-22T10:08:21;98863.78;;;26.94;57.96
75594;BME280;64176;49.156;7.810;2023-06-22T10:11:05;98859.31;;;27.07;58.44
75594;BME280;64176;49.156;7.810;2023-06-22T10:13:49;98858.38;;;27.08;57.89
75594;BME280;64176;49.156;7.810;2023-06-22T10:16:33;98855.22;;;27.15;57.67
75594;BME280;64176;49.156;7.810;2023-06-22T10:19:19;98854.56;;;27.37;57.67
75594;BME280;64176;49.156;7.810;2023-06-22T10:22:06;98854.44;;;27.51;57.80
75594;BME280;64176;49.156;7.810;2023-06-22T10:24:50;98855.00;;;27.44;56.82
75594;BME280;64176;49.156;7.810;2023-06-22T10:27:34;98867.94;;;27.10;57.81
75594;BME280;64176;49.156;7.810;2023-06-22T10:30:19;98864.22;;;27.13;58.13
75594;BME280;64176;49.156;7.810;2023-06-22T10:33:03;98860.41;;;27.30;57.72
75594;BME280;64176;49.156;7.810;2023-06-22T10:35:46;98852.66;;;27.39;58.28
75594;BME280;64176;49.156;7.810;2023-06-22T10:38:33;98857.00;;;27.53;57.88
75594;BME280;64176;49.156;7.810;2023-06-22T10:41:17;98849.41;;;27.61;56.51
75594;BME280;64176;49.156;7.810;2023-06-22T10:44:01;98853.38;;;27.79;56.53
75594;BME280;64176;49.156;7.810;2023-06-22T10:46:46;98843.19;;;27.73;56.42
75594;BME280;64176;49.156;7.810;2023-06-22T10:49:30;98842.47;;;27.59;57.67
75594;BME280;64176;49.156;7.810;2023-06-22T10:52:13;98819.41;;;27.46;57.62
75594;BME280;64176;49.156;7.810;2023-06-22T10:54:57;98831.53;;;27.63;57.79
75594;BME280;64176;49.156;7.810;2023-06-22T10:57:46;98836.38;;;27.82;57.94
75594;BME280;64176;49.156;7.810;2023-06-22T11:00:33;98826.06;;;28.27;56.65
75594;BME280;64176;49.156;7.810;2023-06-22T11:03:17;98845.84;;;28.46;56.10
75594;BME280;64176;49.156;7.810;2023-06-22T11:06:01;98851.97;;;28.36;56.25
75594;BME280;64176;49.156;7.810;2023-06-22T11:08:45;98851.91;;;28.24;55.69
75594;BME280;64176;49.156;7.810;2023-06-22T11:11:29;98859.72;;;28.39;55.40
75594;BME280;64176;49.156;7.810;2023-06-22T11:14:18;98863.63;;;28.46;55.52
75594;BME280;64176;49.156;7.810;2023-06-22T11:17:04;98865.25;;;28.59;54.91
75594;BME280;64176;49.156;7.810;2023-06-22T11:19:49;98860.56;;;28.74;54.06
75594;BME280;64176;49.156;7.810;2023-06-22T11:22:39;98867.31;;;28.67;54.61
75594;BME280;64176;49.156;7.810;2023-06-22T11:25:23;98873.56;;;28.55;53.79
75594;BME280;64176;49.156;7.810;2023-06-22T11:28:07;98867.44;;;28.66;53.85
75594;BME280;64176;49.156;7.810;2023-06-22T11:30:51;98857.97;;;28.61;53.93
75594;BME280;64176;49.156;7.810;2023-06-22T11:33:35;98861.84;;;28.57;53.92
75594;BME280;64176;49.156;7.810;2023-06-22T11:36:19;98859.72;;;28.74;53.54
75594;BME280;64176;49.156;7.810;2023-06-22T11:39:03;98863.88;;;29.13;53.41
75594;BME280;64176;49.156;7.810;2023-06-22T11:41:48;98863.84;;;29.02;53.19
75594;BME280;64176;49.156;7.810;2023-06-22T11:44:32;98870.84;;;28.91;53.84
75594;BME280;64176;49.156;7.810;2023-06-22T11:47:16;98864.22;;;29.08;53.70
75594;BME280;64176;49.156;7.810;2023-06-22T11:50:00;98872.31;;;28.72;53.93
75594;BME280;64176;49.156;7.810;2023-06-22T11:52:44;98878.94;;;28.90;53.95
75594;BME280;64176;49.156;7.810;2023-06-22T11:55:28;98877.19;;;28.78;53.86
75594;BME280;64176;49.156;7.810;2023-06-22T11:58:13;98864.09;;;28.98;53.56
75594;BME280;64176;49.156;7.810;2023-06-22T12:00:56;98858.78;;;29.10;53.52
75594;BME280;64176;49.156;7.810;2023-06-22T12:03:43;98862.63;;;28.71;54.39
75594;BME280;64176;49.156;7.810;2023-06-22T12:06:27;98853.94;;;29.04;54.81
75594;BME280;64176;49.156;7.810;2023-06-22T12:09:13;98843.78;;;29.20;54.45
75594;BME280;64176;49.156;7.810;2023-06-22T12:11:57;98857.63;;;29.25;54.18
75594;BME280;64176;49.156;7.810;2023-06-22T12:14:41;98864.56;;;28.92;53.71
75594;BME280;64176;49.156;7.810;2023-06-22T12:17:25;98862.81;;;29.15;53.59
75594;BME280;64176;49.156;7.810;2023-06-22T12:20:09;98866.16;;;29.06;52.75
75594;BME280;64176;49.156;7.810;2023-06-22T12:22:54;98856.72;;;29.59;52.33
75594;BME280;64176;49.156;7.810;2023-06-22T12:25:40;98851.84;;;29.42;51.51
75594;BME280;64176;49.156;7.810;2023-06-22T12:28:24;98852.41;;;29.23;51.96
75594;BME280;64176;49.156;7.810;2023-06-22T12:31:08;98847.97;;;29.46;52.07
75594;BME280;64176;49.156;7.810;2023-06-22T12:33:52;98849.25;;;29.29;52.44
75594;BME280;64176;49.156;7.810;2023-06-22T12:36:36;98859.44;;;29.24;53.56
75594;BME280;64176;49.156;7.810;2023-06-22T12:39:22;98851.53;;;29.12;53.51
75594;BME280;64176;49.156;7.810;2023-06-22T12:42:06;98849.94;;;28.98;53.76
75594;BME280;64176;49.156;7.810;2023-06-22T12:44:52;98855.91;;;29.13;54.63
75594;BME280;64176;49.156;7.810;2023-06-22T12:47:36;98868.31;;;29.01;53.93
75594;BME280;64176;49.156;7.810;2023-06-22T12:50:20;98862.69;;;29.28;54.02
75594;BME280;64176;49.156;7.810;2023-06-22T12:53:04;98849.03;;;29.32;53.17
75594;BME280;64176;49.156;7.810;2023-06-22T12:55:49;98840.72;;;29.59;52.62
75594;BME280;64176;49.156;7.810;2023-06-22T12:58:33;98849.91;;;29.44;52.74
75594;BME280;64176;49.156;7.810;2023-06-22T13:01:17;98835.53;;;29.47;52.41
75594;BME280;64176;49.156;7.810;2023-06-22T13:04:04;98835.53;;;29.58;51.20
75594;BME280;64176;49.156;7.810;2023-06-22T13:06:51;98825.31;;;29.74;51.34
75594;BME280;64176;49.156;7.810;2023-06-22T13:09:40;98820.84;;;29.63;50.79
75594;BME280;64176;49.156;7.810;2023-06-22T13:12:27;98808.03;;;29.57;50.46
75594;BME280;64176;49.156;7.810;2023-06-22T13:15:11;98826.16;;;29.75;49.10
75594;BME280;64176;49.156;7.810;2023-06-22T13:17:55;98810.56;;;29.81;49.35
75594;BME280;64176;49.156;7.810;2023-06-22T13:20:39;98805.72;;;29.53;49.70
75594;BME280;64176;49.156;7.810;2023-06-22T13:23:25;98803.66;;;29.34;49.76
75594;BME280;64176;49.156;7.810;2023-06-22T13:26:12;98811.38;;;29.04;50.60
75594;BME280;64176;49.156;7.810;2023-06-22T13:28:56;98813.53;;;29.10;51.29
75594;BME280;64176;49.156;7.810;2023-06-22T13:31:40;98808.19;;;28.87;52.08
75594;BME280;64176;49.156;7.810;2023-06-22T13:34:24;98810.88;;;28.75;54.12
75594;BME280;64176;49.156;7.810;2023-06-22T13:37:08;98817.97;;;28.63;56.15
75594;BME280;64176;49.156;7.810;2023-06-22T13:39:52;98815.44;;;28.27;57.49
75594;BME280;64176;49.156;7.810;2023-06-22T13:42:35;98813.75;;;28.13;57.89
75594;BME280;64176;49.156;7.810;2023-06-22T13:45:20;98805.47;;;27.81;61.28
75594;BME280;64176;49.156;7.810;2023-06-22T13:48:05;98804.25;;;27.61;62.77
75594;BME280;64176;49.156;7.810;2023-06-22T13:50:51;98795.34;;;27.24;65.45
75594;BME280;64176;49.156;7.810;2023-06-22T13:53:38;98787.28;;;27.26;63.82
75594;BME280;64176;49.156;7.810;2023-06-22T13:56:22;98777.13;;;27.69;65.21
75594;BME280;64176;49.156;7.810;2023-06-22T13:59:11;98780.69;;;27.93;62.48
75594;BME280;64176;49.156;7.810;2023-06-22T14:01:56;98783.84;;;28.46;64.00
75594;BME280;64176;49.156;7.810;2023-06-22T14:04:40;98790.41;;;28.29;61.71
75594;BME280;64176;49.156;7.810;2023-06-22T14:07:24;98784.19;;;28.41;60.16
75594;BME280;64176;49.156;7.810;2023-06-22T14:10:08;98761.66;;;28.58;58.46
75594;BME280;64176;49.156;7.810;2023-06-22T14:12:54;98764.09;;;28.72;58.23
75594;BME280;64176;49.156;7.810;2023-06-22T14:15:40;98748.41;;;28.34;56.98
75594;BME280;64176;49.156;7.810;2023-06-22T14:18:25;98753.97;;;28.42;57.63
75594;BME280;64176;49.156;7.810;2023-06-22T14:21:08;98757.16;;;28.47;57.27
75594;BME280;64176;49.156;7.810;2023-06-22T14:23:52;98755.59;;;28.91;55.91
75594;BME280;64176;49.156;7.810;2023-06-22T14:26:36;98735.66;;;28.73;56.57
75594;BME280;64176;49.156;7.810;2023-06-22T14:29:25;98738.66;;;28.92;55.74
75594;BME280;64176;49.156;7.810;2023-06-22T14:32:09;98735.88;;;29.16;55.46
75594;BME280;64176;49.156;7.810;2023-06-22T14:34:56;98728.38;;;29.43;55.17
75594;BME280;64176;49.156;7.810;2023-06-22T14:37:40;98717.84;;;29.42;53.86